Time;durP1;ratioP1;P1;durP2;ratioP2;P2;SDS_P1;SDS_P2;PMS_P1;PMS_P2;Temp;Humidity;BMP_temperature;BMP_pressure;BME280_temperature;BME280_humidity;BME280_pressure;Samples;Min_cycle;Max_cycle;Signal;HPM_P1;HPM_P2
2021/03/11 00:00:00;;;;;;;100.57;55.92;;;51.60;1536.00;;;;;;4911360;29;20445;-69
2021/03/11 00:02:26;;;;;;;96.82;54.22;;;51.50;1561.60;;;;;;4908393;29;20535;-69
2021/03/11 00:04:52;;;;;;;86.20;48.60;;;51.50;1536.00;;;;;;4912483;29;20060;-69
2021/03/11 00:07:18;;;;;;;90.28;51.75;;;51.40;1536.00;;;;;;4912717;29;20055;-69
2021/03/11 00:09:43;;;;;;;90.70;51.65;;;51.30;1536.00;;;;;;4912862;29;20131;-68
2021/03/11 00:12:11;;;;;;;106.78;59.53;;;51.30;1536.00;;;;;;4914162;29;20076;-69
2021/03/11 00:14:37;;;;;;;99.55;57.22;;;51.30;1561.60;;;;;;4911442;29;20022;-69
2021/03/11 00:17:04;;;;;;;95.57;53.63;;;51.20;1561.60;;;;;;4913961;29;20024;-69
2021/03/11 00:19:30;;;;;;;98.30;56.45;;;26.50;1561.60;;;;;;4913893;29;20103;-68
2021/03/11 00:21:57;;;;;;;86.22;49.30;;;26.50;1561.60;;;;;;4912826;29;20107;-69
2021/03/11 00:24:23;;;;;;;74.63;47.80;;;26.40;1587.20;;;;;;4909657;29;20032;-69
2021/03/11 00:26:49;;;;;;;85.45;51.20;;;26.30;1587.20;;;;;;4925572;29;20040;-69
2021/03/11 00:29:15;;;;;;;76.28;46.53;;;26.30;1612.80;;;;;;4913291;29;20058;-69
2021/03/11 00:31:41;;;;;;;74.72;42.70;;;26.30;1612.80;;;;;;4913187;29;20115;-69
2021/03/11 00:34:07;;;;;;;67.28;41.42;;;26.20;1587.20;;;;;;4928707;29;20075;-69
2021/03/11 00:36:32;;;;;;;72.50;40.25;;;26.10;1612.80;;;;;;4914044;29;20056;-69
2021/03/11 00:38:58;;;;;;;74.32;41.70;;;26.10;1612.80;;;;;;4911176;29;20063;-70
2021/03/11 00:41:24;;;;;;;70.55;39.75;;;26.20;1612.80;;;;;;4910544;29;20100;-68
2021/03/11 00:43:49;;;;;;;72.80;43.20;;;26.10;1612.80;;;;;;4912156;29;20389;-70
2021/03/11 00:46:15;;;;;;;71.82;41.25;;;26.10;1612.80;;;;;;4908951;29;20116;-68
2021/03/11 00:48:41;;;;;;;72.70;41.45;;;26.10;1612.80;;;;;;4909045;29;20147;-68
2021/03/11 00:51:07;;;;;;;73.32;41.45;;;26.10;1587.20;;;;;;4912242;29;20272;-68
2021/03/11 00:53:33;;;;;;;70.40;41.20;;;26.00;1612.80;;;;;;4911210;29;20576;-70
2021/03/11 00:55:58;;;;;;;67.25;39.33;;;25.80;1612.80;;;;;;4909234;29;20020;-70
2021/03/11 00:58:24;;;;;;;71.43;39.35;;;25.70;1638.40;;;;;;4909425;29;20028;-70
2021/03/11 01:00:50;;;;;;;69.50;39.55;;;25.70;1638.40;;;;;;4911257;29;20024;-69
2021/03/11 01:03:16;;;;;;;72.05;38.15;;;25.70;1612.80;;;;;;4914154;29;20044;-68
2021/03/11 01:05:42;;;;;;;71.50;38.40;;;25.70;1638.40;;;;;;4912868;29;20032;-70
2021/03/11 01:08:08;;;;;;;58.72;36.72;;;25.60;1638.40;;;;;;4909738;29;20036;-70
2021/03/11 01:10:35;;;;;;;57.50;35.03;;;25.60;1638.40;;;;;;4914095;29;20137;-69
2021/03/11 01:13:01;;;;;;;64.47;34.85;;;25.60;1638.40;;;;;;4911311;29;20023;-71
2021/03/11 01:15:30;;;;;;;58.53;35.75;;;25.60;1638.40;;;;;;4909392;29;20029;-68
2021/03/11 01:17:56;;;;;;;54.10;31.40;;;25.60;1638.40;;;;;;4909678;29;20537;-70
2021/03/11 01:20:22;;;;;;;45.78;28.33;;;0.90;1638.40;;;;;;4911628;29;20161;-70
2021/03/11 01:22:48;;;;;;;50.28;27.25;;;0.90;1638.40;;;;;;4906513;29;20485;-68
2021/03/11 01:25:14;;;;;;;57.45;27.95;;;0.90;1638.40;;;;;;4898301;29;20028;-70
2021/03/11 01:27:40;;;;;;;49.40;27.10;;;0.80;1638.40;;;;;;4912335;29;20035;-69
2021/03/11 01:30:07;;;;;;;47.38;28.30;;;0.80;1638.40;;;;;;4897377;29;20024;-69
2021/03/11 01:32:33;;;;;;;47.50;29.45;;;0.80;1612.80;;;;;;4915288;29;20115;-70
2021/03/11 01:34:59;;;;;;;45.53;27.27;;;0.90;1612.80;;;;;;4913187;29;20068;-71
2021/03/11 01:37:25;;;;;;;58.88;28.55;;;25.60;1612.80;;;;;;4914380;29;20036;-68
2021/03/11 01:39:50;;;;;;;46.13;27.00;;;25.60;1612.80;;;;;;4911473;29;20091;-68
2021/03/11 01:42:16;;;;;;;46.85;27.02;;;25.60;1612.80;;;;;;4914862;29;20032;-68
2021/03/11 01:44:42;;;;;;;45.85;27.88;;;25.60;1612.80;;;;;;4914984;29;20032;-69
2021/03/11 01:47:08;;;;;;;50.97;28.23;;;25.60;1638.40;;;;;;4913870;29;20035;-68
2021/03/11 01:49:33;;;;;;;45.47;27.05;;;25.70;1638.40;;;;;;4897796;29;20041;-69
2021/03/11 01:52:01;;;;;;;47.50;30.23;;;25.70;1638.40;;;;;;4927813;29;20028;-69
2021/03/11 01:54:29;;;;;;;53.38;31.65;;;25.80;1664.00;;;;;;4914148;29;20474;-69
2021/03/11 01:56:55;;;;;;;54.70;30.00;;;25.80;1664.00;;;;;;4920682;29;20031;-68
2021/03/11 01:59:21;;;;;;;51.47;30.63;;;25.80;1664.00;;;;;;4920236;29;20042;-69
2021/03/11 02:01:47;;;;;;;49.53;28.52;;;25.80;1664.00;;;;;;4896379;29;20127;-68
2021/03/11 02:04:13;;;;;;;48.80;29.73;;;25.80;1664.00;;;;;;4914236;29;20039;-68
2021/03/11 02:06:39;;;;;;;48.08;29.90;;;25.80;1664.00;;;;;;4913871;29;20115;-68
2021/03/11 02:09:05;;;;;;;57.63;31.67;;;25.80;1664.00;;;;;;4896809;29;20052;-68
2021/03/11 02:11:32;;;;;;;46.13;27.45;;;25.90;1664.00;;;;;;4913658;29;20042;-68
2021/03/11 02:14:10;;;;;;;43.25;25.02;;;25.90;1664.00;;;;;;4909960;29;20032;-68
2021/03/11 02:16:46;;;;;;;46.15;27.08;;;25.90;1664.00;;;;;;4901863;29;20024;-68
2021/03/11 02:19:41;;;;;;;51.08;27.58;;;25.90;1664.00;;;;;;4917308;29;20030;-68
2021/03/11 02:22:12;;;;;;;73.20;34.03;;;26.00;1664.00;;;;;;4901356;29;20038;-67
2021/03/11 02:24:57;;;;;;;89.82;42.13;;;26.00;1664.00;;;;;;4915245;29;20024;-68
2021/03/11 02:27:48;;;;;;;73.90;37.67;;;26.10;1664.00;;;;;;4915965;29;20393;-68
2021/03/11 02:30:14;;;;;;;72.80;34.75;;;26.00;1664.00;;;;;;4923758;29;20056;-69
2021/03/11 02:32:43;;;;;;;62.90;30.83;;;26.00;1689.60;;;;;;4916533;29;20024;-68
2021/03/11 02:35:10;;;;;;;57.17;30.77;;;25.90;1689.60;;;;;;4915968;29;20079;-68
2021/03/11 02:37:46;;;;;;;54.08;31.35;;;25.90;1689.60;;;;;;4915636;29;20044;-68
2021/03/11 02:40:28;;;;;;;53.22;30.45;;;25.80;1689.60;;;;;;4916618;29;20028;-69
2021/03/11 02:42:57;;;;;;;55.53;31.30;;;25.70;1689.60;;;;;;4917158;29;20032;-68
2021/03/11 02:45:28;;;;;;;49.10;29.40;;;25.60;1689.60;;;;;;4916826;29;20024;-68
2021/03/11 02:47:58;;;;;;;41.28;28.45;;;0.90;1664.00;;;;;;4915589;29;20033;-68
2021/03/11 02:50:24;;;;;;;46.60;29.05;;;0.80;1664.00;;;;;;4915365;29;20155;-68
2021/03/11 02:52:51;;;;;;;58.20;31.88;;;0.80;1689.60;;;;;;4916405;29;20536;-68
2021/03/11 02:55:19;;;;;;;54.92;31.95;;;0.90;1715.20;;;;;;4916662;29;20063;-69
2021/03/11 02:57:46;;;;;;;50.22;28.83;;;0.90;1715.20;;;;;;4917343;29;20032;-68
2021/03/11 03:00:14;;;;;;;50.22;30.50;;;0.90;1715.20;;;;;;4915371;29;20378;-68
2021/03/11 03:02:44;;;;;;;52.47;31.02;;;0.90;1715.20;;;;;;4899225;29;20084;-68
2021/03/11 03:05:18;;;;;;;58.38;34.40;;;25.60;1715.20;;;;;;4914754;29;20401;-68
2021/03/11 03:07:46;;;;;;;67.63;34.22;;;25.60;1689.60;;;;;;4916993;29;20032;-68
2021/03/11 03:10:19;;;;;;;64.97;36.47;;;25.60;1689.60;;;;;;4916161;29;20028;-68
2021/03/11 03:12:46;;;;;;;60.00;36.03;;;25.60;1689.60;;;;;;4915640;29;20516;-68
2021/03/11 03:15:14;;;;;;;66.10;32.47;;;0.90;1689.60;;;;;;4916126;29;20111;-68
2021/03/11 03:17:40;;;;;;;54.55;31.67;;;0.90;1689.60;;;;;;4913806;29;20080;-68
2021/03/11 03:20:08;;;;;;;52.25;31.98;;;0.90;1689.60;;;;;;4914869;29;20063;-68
2021/03/11 03:22:36;;;;;;;50.92;31.98;;;0.90;1689.60;;;;;;4914073;29;20469;-68
2021/03/11 03:25:07;;;;;;;54.25;33.17;;;0.80;1689.60;;;;;;4916030;29;20536;-68
2021/03/11 03:27:33;;;;;;;57.83;34.67;;;0.80;1689.60;;;;;;4914830;29;20389;-68
2021/03/11 03:29:59;;;;;;;57.72;33.45;;;0.70;1689.60;;;;;;4915122;29;20028;-68
2021/03/11 03:32:24;;;;;;;63.85;33.83;;;0.70;1715.20;;;;;;4915784;29;20032;-67
2021/03/11 03:34:50;;;;;;;52.95;32.35;;;0.70;1715.20;;;;;;4915130;29;20456;-67
2021/03/11 03:37:16;;;;;;;61.17;33.05;;;0.60;1715.20;;;;;;4915848;29;20047;-67
2021/03/11 03:39:41;;;;;;;55.95;32.05;;;0.60;1715.20;;;;;;4915579;29;20111;-67
2021/03/11 03:42:11;;;;;;;52.78;31.48;;;0.50;1689.60;;;;;;4915454;29;20035;-68
2021/03/11 03:44:40;;;;;;;52.38;31.60;;;0.50;1715.20;;;;;;4915478;29;20111;-68
2021/03/11 03:47:08;;;;;;;55.40;31.15;;;0.30;1715.20;;;;;;4915301;29;20028;-68
2021/03/11 03:49:34;;;;;;;57.92;36.05;;;0.10;1766.40;;;;;;4914993;29;20028;-68
2021/03/11 03:52:02;;;;;;;55.17;32.28;;;0.00;1792.00;;;;;;4918828;29;20119;-69
2021/03/11 03:54:30;;;;;;;58.78;32.72;;;0.00;1792.00;;;;;;4925646;29;20533;-68
2021/03/11 03:57:02;;;;;;;58.30;32.40;;;12.90;1817.60;;;;;;4915260;29;20080;-68
2021/03/11 03:59:35;;;;;;;56.78;33.90;;;12.90;1792.00;;;;;;4898992;29;20115;-69
2021/03/11 04:02:04;;;;;;;58.10;33.15;;;13.00;1792.00;;;;;;4909157;29;20031;-68
2021/03/11 04:04:37;;;;;;;62.47;35.45;;;13.00;1817.60;;;;;;4914598;29;20024;-68
2021/03/11 04:07:06;;;;;;;65.88;34.97;;;12.90;1792.00;;;;;;4912409;29;20020;-69
2021/03/11 04:09:33;;;;;;;65.72;35.67;;;13.10;1792.00;;;;;;4923449;29;20024;-68
2021/03/11 04:11:59;;;;;;;63.35;36.13;;;13.10;1817.60;;;;;;4914948;29;20024;-68
2021/03/11 04:14:26;;;;;;;57.35;34.28;;;13.00;1792.00;;;;;;4914735;29;20469;-68
2021/03/11 04:16:53;;;;;;;68.07;37.47;;;13.10;1817.60;;;;;;4914941;29;20138;-68
2021/03/11 04:19:21;;;;;;;63.10;33.25;;;13.00;1817.60;;;;;;4914505;29;20068;-68
2021/03/11 04:21:48;;;;;;;68.18;36.70;;;13.00;1817.60;;;;;;4913253;29;20039;-68
2021/03/11 04:24:14;;;;;;;72.50;39.42;;;13.10;1843.20;;;;;;4915057;29;20017;-68
2021/03/11 04:26:40;;;;;;;124.60;67.85;;;13.20;1843.20;;;;;;4914223;29;20039;-68
2021/03/11 04:29:07;;;;;;;113.82;62.05;;;13.30;1868.80;;;;;;4913320;29;20080;-68
2021/03/11 04:31:33;;;;;;;97.28;55.20;;;13.30;1868.80;;;;;;4914152;29;20028;-68
2021/03/11 04:34:00;;;;;;;75.97;44.63;;;13.40;1868.80;;;;;;4930866;29;20549;-67
2021/03/11 04:36:27;;;;;;;75.45;43.63;;;13.50;1868.80;;;;;;4932637;29;20119;-68
2021/03/11 04:38:53;;;;;;;84.80;45.30;;;13.30;1868.80;;;;;;4900456;29;20032;-68
2021/03/11 04:41:21;;;;;;;85.63;45.85;;;13.40;1868.80;;;;;;4914264;29;20028;-68
2021/03/11 04:43:47;;;;;;;69.45;41.20;;;13.50;1894.40;;;;;;4914581;29;20032;-68
2021/03/11 04:46:19;;;;;;;74.03;41.15;;;13.70;1920.00;;;;;;4914148;29;20421;-68
2021/03/11 04:48:45;;;;;;;83.80;43.50;;;13.60;1920.00;;;;;;4912971;29;20031;-68
2021/03/11 04:51:13;;;;;;;103.97;51.97;;;13.60;1920.00;;;;;;4917531;29;20504;-68
2021/03/11 04:53:40;;;;;;;106.72;55.65;;;13.60;1920.00;;;;;;4924587;29;20453;-69
2021/03/11 04:56:09;;;;;;;106.95;54.05;;;13.60;1920.00;;;;;;4928004;29;20035;-69
2021/03/11 04:58:40;;;;;;;83.47;47.58;;;13.60;1920.00;;;;;;4933686;29;20031;-68
2021/03/11 05:01:10;;;;;;;88.18;48.45;;;13.60;1945.60;;;;;;4927976;29;20058;-69
2021/03/11 05:03:45;;;;;;;88.50;47.10;;;13.60;1920.00;;;;;;4925535;29;20019;-69
2021/03/11 05:06:12;;;;;;;87.57;46.00;;;13.60;1920.00;;;;;;4928077;29;20521;-68
2021/03/11 05:08:37;;;;;;;89.38;48.95;;;13.60;1920.00;;;;;;4925244;29;20309;-69
2021/03/11 05:11:03;;;;;;;78.53;45.53;;;13.60;1920.00;;;;;;4916400;29;20028;-69
2021/03/11 05:13:30;;;;;;;82.22;44.92;;;13.60;1920.00;;;;;;4897554;29;20099;-69
2021/03/11 05:15:59;;;;;;;82.72;46.17;;;13.60;1920.00;;;;;;4913756;29;20074;-69
2021/03/11 05:18:25;;;;;;;84.03;49.25;;;13.50;1920.00;;;;;;4923697;29;20054;-69
2021/03/11 05:20:52;;;;;;;80.55;45.55;;;13.40;1920.00;;;;;;4909807;29;20039;-69
2021/03/11 05:23:21;;;;;;;140.80;75.40;;;13.30;1894.40;;;;;;4904363;29;20032;-69
2021/03/11 05:25:48;;;;;;;127.63;69.18;;;13.20;1868.80;;;;;;4913939;29;20020;-69
2021/03/11 05:28:14;;;;;;;91.22;53.25;;;13.10;1868.80;;;;;;4911030;29;20039;-69
2021/03/11 05:30:39;;;;;;;95.18;53.58;;;13.00;1868.80;;;;;;4910441;29;20075;-69
2021/03/11 05:33:05;;;;;;;94.05;53.10;;;13.00;1868.80;;;;;;4911661;29;20024;-69
2021/03/11 05:35:31;;;;;;;89.43;54.85;;;12.90;1868.80;;;;;;4914517;29;20124;-69
2021/03/11 05:37:57;;;;;;;92.00;50.88;;;12.90;1868.80;;;;;;4926580;29;20032;-69
2021/03/11 05:40:24;;;;;;;105.53;54.75;;;0.00;1868.80;;;;;;4932831;29;20035;-69
2021/03/11 05:42:52;;;;;;;103.60;57.13;;;0.10;1843.20;;;;;;4932559;29;20016;-69
2021/03/11 05:45:19;;;;;;;116.68;64.65;;;0.20;1843.20;;;;;;4914450;29;20033;-69
2021/03/11 05:47:46;;;;;;;121.35;65.95;;;0.30;1868.80;;;;;;4914320;29;20032;-69
2021/03/11 05:50:13;;;;;;;136.10;67.50;;;0.30;1843.20;;;;;;4914908;29;20020;-69
2021/03/11 05:52:39;;;;;;;119.22;67.75;;;0.40;1817.60;;;;;;4917965;29;20020;-69
2021/03/11 05:55:07;;;;;;;122.20;63.95;;;0.40;1817.60;;;;;;4917406;29;20410;-69
2021/03/11 05:57:33;;;;;;;115.47;65.72;;;0.50;1792.00;;;;;;4901165;29;20119;-69
2021/03/11 05:59:59;;;;;;;103.75;57.05;;;0.60;1817.60;;;;;;4917436;29;20028;-69
2021/03/11 06:02:27;;;;;;;109.80;59.75;;;0.60;1792.00;;;;;;4918120;29;20035;-69
2021/03/11 06:04:54;;;;;;;120.88;63.17;;;0.80;1792.00;;;;;;4917707;29;20048;-70
2021/03/11 06:07:24;;;;;;;125.05;63.47;;;0.80;1792.00;;;;;;4901185;29;20043;-70
2021/03/11 06:10:01;;;;;;;128.88;68.30;;;25.60;1792.00;;;;;;4918046;29;20016;-70
2021/03/11 06:12:28;;;;;;;111.15;60.75;;;25.60;1766.40;;;;;;4917870;29;20028;-69
2021/03/11 06:15:01;;;;;;;101.22;52.08;;;25.70;1740.80;;;;;;4931293;29;20019;-69
2021/03/11 06:17:31;;;;;;;96.15;52.35;;;25.80;1740.80;;;;;;4909399;29;20036;-69
2021/03/11 06:19:58;;;;;;;85.63;48.05;;;25.90;1740.80;;;;;;4921378;29;20103;-70
2021/03/11 06:22:24;;;;;;;85.93;45.67;;;26.00;1715.20;;;;;;4900787;29;20036;-70
2021/03/11 06:24:51;;;;;;;75.78;45.08;;;26.10;1689.60;;;;;;4917364;29;20034;-69
2021/03/11 06:27:17;;;;;;;88.22;43.30;;;26.20;1689.60;;;;;;4917778;29;20083;-70
2021/03/11 06:29:43;;;;;;;84.13;43.45;;;26.30;1689.60;;;;;;4900338;29;20037;-70
2021/03/11 06:32:09;;;;;;;87.00;49.08;;;26.40;1689.60;;;;;;4917265;29;20119;-70
2021/03/11 06:34:42;;;;;;;85.00;50.40;;;26.50;1664.00;;;;;;4916989;29;20496;-70
2021/03/11 06:37:09;;;;;;;94.20;50.08;;;51.20;1689.60;;;;;;4916525;29;20036;-69
2021/03/11 06:39:37;;;;;;;82.45;43.63;;;51.30;1689.60;;;;;;4917573;29;20016;-70
2021/03/11 06:42:04;;;;;;;69.50;40.60;;;51.40;1664.00;;;;;;4917090;29;20119;-69
2021/03/11 06:44:42;;;;;;;74.28;40.88;;;51.50;1638.40;;;;;;4900805;29;20058;-70
2021/03/11 06:47:15;;;;;;;84.35;45.22;;;51.70;1638.40;;;;;;4900207;29;20032;-70
2021/03/11 06:50:00;;;;;;;81.07;43.47;;;51.70;1638.40;;;;;;4902945;29;20511;-70
2021/03/11 06:52:27;;;;;;;74.93;42.05;;;51.90;1612.80;;;;;;4913504;29;20449;-70
2021/03/11 06:55:04;;;;;;;70.60;39.42;;;52.00;1612.80;;;;;;4920325;29;20024;-70
2021/03/11 06:57:38;;;;;;;75.88;42.03;;;52.10;1612.80;;;;;;4933879;29;20023;-70
2021/03/11 07:00:16;;;;;;;72.38;39.28;;;76.80;1612.80;;;;;;4901989;29;20024;-69
2021/03/11 07:02:59;;;;;;;88.47;45.17;;;77.00;1587.20;;;;;;4915336;29;20119;-70
2021/03/11 07:05:27;;;;;;;72.10;38.10;;;77.10;1587.20;;;;;;4922475;29;20032;-70
2021/03/11 07:08:11;;;;;;;84.60;37.85;;;77.20;1587.20;;;;;;4924593;29;20362;-70
2021/03/11 07:10:38;;;;;;;74.80;35.65;;;77.40;1561.60;;;;;;4915140;29;20181;-70
2021/03/11 07:13:05;;;;;;;63.92;35.65;;;77.60;1536.00;;;;;;4917312;29;20031;-71
2021/03/11 07:15:36;;;;;;;70.20;36.72;;;102.40;1510.40;;;;;;4930109;29;20021;-70
2021/03/11 07:18:06;;;;;;;57.80;34.38;;;102.70;1484.80;;;;;;4917289;29;20028;-70
2021/03/11 07:20:33;;;;;;;70.07;37.33;;;102.90;1459.20;;;;;;4918829;29;20020;-70
2021/03/11 07:23:14;;;;;;;71.55;39.65;;;103.20;1459.20;;;;;;4935688;29;20027;-70
2021/03/11 07:25:44;;;;;;;64.30;37.53;;;128.10;1433.60;;;;;;4918357;29;20016;-70
2021/03/11 07:28:29;;;;;;;65.80;34.47;;;128.30;1433.60;;;;;;4915854;29;20016;-70
2021/03/11 07:31:00;;;;;;;62.60;35.63;;;128.80;1382.40;;;;;;4915682;29;20045;-69
2021/03/11 07:33:28;;;;;;;68.18;37.03;;;153.80;1356.80;;;;;;4926517;29;20039;-70
2021/03/11 07:35:59;;;;;;;56.80;33.20;;;154.20;1331.20;;;;;;4917802;29;20056;-69
2021/03/11 07:38:27;;;;;;;43.67;28.05;;;154.50;1280.00;;;;;;4915077;29;20036;-70
2021/03/11 07:40:58;;;;;;;60.05;32.40;;;179.40;1228.80;;;;;;4913921;29;20047;-70
2021/03/11 07:43:26;;;;;;;54.05;30.38;;;179.70;1228.80;;;;;;4915757;29;20485;-69
2021/03/11 07:46:05;;;;;;;49.42;30.98;;;179.70;1203.20;;;;;;4915820;29;20032;-69
2021/03/11 07:48:31;;;;;;;60.10;33.85;;;180.00;1203.20;;;;;;4913874;29;20122;-69
2021/03/11 07:50:57;;;;;;;50.40;30.42;;;204.80;1203.20;;;;;;4915461;29;20063;-71
2021/03/11 07:53:26;;;;;;;41.70;26.90;;;205.10;1152.00;;;;;;4915283;29;20098;-70
2021/03/11 07:55:56;;;;;;;37.08;23.95;;;205.30;1126.40;;;;;;4899090;29;20060;-70
2021/03/11 07:58:23;;;;;;;33.05;21.88;;;205.40;1075.20;;;;;;4898596;29;20036;-69
2021/03/11 08:00:50;;;;;;;47.08;32.40;;;205.50;1100.80;;;;;;4910651;29;20406;-69
2021/03/11 08:03:23;;;;;;;40.90;25.35;;;205.60;1075.20;;;;;;4910223;29;20126;-70
2021/03/11 08:05:50;;;;;;;41.40;22.65;;;230.40;1075.20;;;;;;4910822;29;20115;-70
2021/03/11 08:08:22;;;;;;;38.65;20.58;;;205.70;1075.20;;;;;;4907696;29;20032;-70
2021/03/11 08:10:53;;;;;;;41.50;21.25;;;230.40;1049.60;;;;;;4908483;29;20070;-70
2021/03/11 08:13:38;;;;;;;39.08;20.20;;;230.60;1075.20;;;;;;4914605;29;20047;-70
2021/03/11 08:16:16;;;;;;;28.50;18.85;;;230.70;1024.00;;;;;;4912190;29;20544;-70
2021/03/11 08:18:46;;;;;;;31.20;19.92;;;230.80;1024.00;;;;;;4906453;29;20036;-69
2021/03/11 08:21:23;;;;;;;28.10;18.88;;;231.20;1024.00;;;;;;4903311;29;20032;-70
2021/03/11 08:23:50;;;;;;;31.17;20.23;;;231.00;998.40;;;;;;4900597;29;20064;-70
2021/03/11 08:26:38;;;;;;;30.73;21.67;;;231.10;1024.00;;;;;;4905561;29;20027;-70
2021/03/11 08:29:19;;;;;;;35.13;21.60;;;231.20;998.40;;;;;;4896500;29;20523;-69
2021/03/11 08:31:46;;;;;;;31.00;20.90;;;256.00;998.40;;;;;;4910310;29;20119;-70
2021/03/11 08:34:33;;;;;;;34.05;21.77;;;256.00;972.80;;;;;;4914292;29;20020;-70
2021/03/11 08:37:22;;;;;;;32.30;21.63;;;256.60;972.80;;;;;;4911360;29;20028;-70
2021/03/11 08:39:48;;;;;;;25.20;17.27;;;281.70;921.60;;;;;;4911517;29;20018;-71
2021/03/11 08:42:47;;;;;;;32.15;16.20;;;256.50;896.00;;;;;;4908858;29;20024;-70
2021/03/11 08:45:33;;;;;;;27.35;17.00;;;256.40;870.40;;;;;;4866217;29;20033;-70
2021/03/11 08:48:13;;;;;;;27.30;19.50;;;256.50;870.40;;;;;;4874574;29;20025;-71
2021/03/11 08:50:41;;;;;;;31.30;18.73;;;256.90;896.00;;;;;;4873197;29;20068;-69
2021/03/11 08:53:07;;;;;;;33.00;20.20;;;282.30;870.40;;;;;;4867638;29;20020;-70
2021/03/11 08:55:36;;;;;;;29.25;20.15;;;282.40;870.40;;;;;;4864761;29;20754;-69
2021/03/11 08:58:03;;;;;;;29.20;18.92;;;307.50;870.40;;;;;;4874883;29;20025;-69
2021/03/11 09:01:10;;;;;;;34.15;21.80;;;307.60;870.40;;;;;;4880484;29;20503;-69
2021/03/11 09:03:38;;;;;;;26.73;19.30;;;308.00;819.20;;;;;;4818557;29;20771;-70
2021/03/11 09:06:06;;;;;;;31.20;19.98;;;333.00;844.80;;;;;;4819524;29;20121;-69
2021/03/11 09:08:33;;;;;;;30.88;20.38;;;333.00;819.20;;;;;;4819245;29;20511;-71
2021/03/11 09:11:25;;;;;;;31.67;20.15;;;307.90;819.20;;;;;;4809920;29;20042;-70
2021/03/11 09:13:53;;;;;;;29.48;19.98;;;332.90;819.20;;;;;;4823865;29;20038;-70
2021/03/11 09:16:26;;;;;;;36.65;21.15;;;333.30;793.60;;;;;;4826688;29;20038;-69
2021/03/11 09:18:57;;;;;;;27.25;20.20;;;333.60;768.00;;;;;;4810761;29;20427;-68
2021/03/11 09:21:36;;;;;;;33.33;22.35;;;333.70;742.40;;;;;;4822924;29;20042;-69
2021/03/11 09:24:03;;;;;;;75.25;39.00;;;358.50;716.80;;;;;;4837936;29;20403;-69
2021/03/11 09:26:33;;;;;;;30.75;20.60;;;333.20;793.60;;;;;;4839672;29;20499;-71
2021/03/11 09:28:59;;;;;;;28.65;22.08;;;358.70;716.80;;;;;;4841006;29;20048;-71
2021/03/11 09:31:27;;;;;;;29.23;21.85;;;359.20;691.20;;;;;;4841457;29;20037;-69
2021/03/11 09:33:57;;;;;;;29.95;21.60;;;384.10;665.60;;;;;;4863798;29;20047;-69
2021/03/11 09:36:23;;;;;;;36.20;21.80;;;359.10;665.60;;;;;;4915300;29;20059;-72
2021/03/11 09:38:51;;;;;;;35.22;22.80;;;358.60;640.00;;;;;;4915431;29;20164;-68
2021/03/11 09:41:24;;;;;;;30.88;20.33;;;333.60;716.80;;;;;;4900921;29;20501;-68
2021/03/11 09:43:50;;;;;;;48.45;27.17;;;359.00;665.60;;;;;;4916684;29;20032;-68
2021/03/11 09:46:19;;;;;;;34.10;22.40;;;358.70;640.00;;;;;;4916948;29;20039;-69
2021/03/11 09:48:53;;;;;;;26.27;18.25;;;333.40;691.20;;;;;;4924203;29;20800;-69
2021/03/11 09:51:20;;;;;;;25.42;17.73;;;358.90;640.00;;;;;;4918186;29;20036;-67
2021/03/11 09:53:45;;;;;;;27.75;18.58;;;384.50;614.40;;;;;;4916090;29;20032;-67
2021/03/11 09:56:30;;;;;;;47.30;25.73;;;384.50;537.60;;;;;;4919479;29;20030;-67
2021/03/11 09:59:01;;;;;;;26.73;18.13;;;359.00;614.40;;;;;;4916488;29;20039;-67
2021/03/11 10:01:31;;;;;;;30.35;18.27;;;384.10;588.80;;;;;;4902791;29;20115;-70
2021/03/11 10:04:10;;;;;;;24.90;18.25;;;409.80;588.80;;;;;;4917657;29;20401;-70
2021/03/11 10:06:37;;;;;;;31.13;20.90;;;435.40;563.20;;;;;;4915801;29;20055;-68
2021/03/11 10:09:03;;;;;;;29.52;20.38;;;435.80;537.60;;;;;;4922876;29;20032;-68
2021/03/11 10:11:52;;;;;;;45.67;25.67;;;435.70;563.20;;;;;;4919209;29;20032;-68
2021/03/11 10:14:20;;;;;;;35.75;22.08;;;409.80;563.20;;;;;;4918703;29;20859;-68
2021/03/11 10:16:48;;;;;;;46.33;25.42;;;409.90;563.20;;;;;;4923309;29;20023;-68
2021/03/11 10:19:17;;;;;;;35.88;23.30;;;410.40;563.20;;;;;;4910947;29;20020;-70
2021/03/11 10:21:51;;;;;;;25.48;17.60;;;435.50;537.60;;;;;;4915192;29;20079;-70
2021/03/11 10:24:50;;;;;;;23.60;17.65;;;435.20;537.60;;;;;;4914707;29;20057;-69
2021/03/11 10:27:24;;;;;;;30.27;21.10;;;435.50;537.60;;;;;;4873275;29;20053;-69
2021/03/11 10:30:08;;;;;;;33.92;24.25;;;409.90;563.20;;;;;;4873202;29;20571;-67
2021/03/11 10:32:36;;;;;;;25.77;19.50;;;410.40;563.20;;;;;;4873259;29;20072;-68
2021/03/11 10:35:04;;;;;;;22.48;17.67;;;410.10;563.20;;;;;;4876275;29;20068;-69
2021/03/11 10:37:33;;;;;;;26.23;19.77;;;410.20;563.20;;;;;;4874281;29;20029;-68
2021/03/11 10:40:04;;;;;;;30.10;21.73;;;410.00;588.80;;;;;;4875616;29;20108;-67
2021/03/11 10:42:45;;;;;;;35.88;26.10;;;410.40;588.80;;;;;;4874685;29;20033;-68
2021/03/11 10:45:14;;;;;;;33.17;24.33;;;435.70;563.20;;;;;;4872482;29;20120;-68
2021/03/11 10:47:41;;;;;;;29.90;23.15;;;409.90;588.80;;;;;;4853635;29;20547;-68
2021/03/11 10:50:19;;;;;;;28.52;20.27;;;435.70;563.20;;;;;;4863104;29;20045;-68
2021/03/11 10:52:50;;;;;;;30.02;22.55;;;435.70;537.60;;;;;;4874287;29;20039;-68
2021/03/11 10:55:24;;;;;;;38.15;25.70;;;461.00;563.20;;;;;;4857792;29;20040;-69
2021/03/11 10:57:50;;;;;;;26.10;21.80;;;461.00;563.20;;;;;;4874196;29;20053;-68
2021/03/11 11:00:22;;;;;;;26.90;20.00;;;410.50;588.80;;;;;;4855841;29;20041;-68
2021/03/11 11:02:53;;;;;;;30.48;20.70;;;435.50;588.80;;;;;;4889010;29;20047;-68
2021/03/11 11:05:19;;;;;;;23.73;18.27;;;435.90;537.60;;;;;;4913746;29;20028;-68
2021/03/11 11:07:44;;;;;;;28.92;20.38;;;409.80;563.20;;;;;;4897858;29;20397;-68
2021/03/11 11:10:11;;;;;;;26.83;20.55;;;409.60;588.80;;;;;;4907516;29;20024;-68
2021/03/11 11:12:37;;;;;;;29.75;19.88;;;409.80;588.80;;;;;;4910804;29;20029;-71
2021/03/11 11:15:03;;;;;;;32.40;22.33;;;435.40;563.20;;;;;;4908016;29;20040;-68
2021/03/11 11:17:29;;;;;;;29.73;21.90;;;435.80;537.60;;;;;;4900664;29;20029;-68
2021/03/11 11:19:54;;;;;;;27.95;20.85;;;435.80;537.60;;;;;;4910705;29;20034;-70
2021/03/11 11:22:21;;;;;;;27.02;21.10;;;410.30;563.20;;;;;;4910870;29;20032;-70
2021/03/11 11:24:46;;;;;;;27.08;21.73;;;436.10;537.60;;;;;;4908493;29;20020;-70
2021/03/11 11:27:13;;;;;;;31.10;22.08;;;435.50;537.60;;;;;;4910093;29;20032;-70
2021/03/11 11:29:39;;;;;;;28.70;20.98;;;461.30;537.60;;;;;;4925878;29;20404;-69
2021/03/11 11:32:06;;;;;;;30.33;21.58;;;461.30;537.60;;;;;;4907337;29;20032;-70
2021/03/11 11:34:32;;;;;;;31.13;23.88;;;461.70;512.00;;;;;;4906653;29;20036;-68
2021/03/11 11:36:57;;;;;;;30.08;21.45;;;486.60;537.60;;;;;;4904865;29;20035;-68
2021/03/11 11:39:23;;;;;;;29.05;19.92;;;461.40;537.60;;;;;;4909171;29;20398;-68
2021/03/11 11:41:50;;;;;;;35.15;23.15;;;486.70;512.00;;;;;;4909345;29;20532;-70
2021/03/11 11:44:16;;;;;;;30.95;23.48;;;436.00;563.20;;;;;;4903843;29;20032;-70
2021/03/11 11:46:43;;;;;;;27.50;20.38;;;461.20;537.60;;;;;;4906384;29;20721;-68
2021/03/11 11:49:09;;;;;;;29.15;21.40;;;435.40;537.60;;;;;;4909081;29;20051;-70
2021/03/11 11:51:35;;;;;;;33.67;23.17;;;410.30;563.20;;;;;;4914162;29;20054;-70
2021/03/11 11:54:01;;;;;;;31.05;22.48;;;384.80;588.80;;;;;;4910199;29;20016;-70
2021/03/11 11:56:27;;;;;;;28.27;21.75;;;410.20;588.80;;;;;;4906992;29;20480;-68
2021/03/11 11:58:52;;;;;;;28.70;22.05;;;410.40;563.20;;;;;;4905478;29;20061;-71
2021/03/11 12:01:18;;;;;;;32.10;22.35;;;436.00;537.60;;;;;;4908174;29;20030;-69
2021/03/11 12:03:44;;;;;;;29.15;19.83;;;435.70;563.20;;;;;;4904631;29;20104;-69
2021/03/11 12:06:10;;;;;;;26.65;20.50;;;436.10;537.60;;;;;;4898637;29;20032;-69
2021/03/11 12:08:35;;;;;;;29.45;20.20;;;461.50;512.00;;;;;;4898866;29;20036;-70
2021/03/11 12:11:02;;;;;;;28.50;21.23;;;461.60;512.00;;;;;;4900837;29;20036;-71
2021/03/11 12:13:28;;;;;;;30.70;21.00;;;461.60;512.00;;;;;;4911162;29;20099;-70
2021/03/11 12:15:54;;;;;;;29.05;20.65;;;461.30;512.00;;;;;;4901778;29;20052;-70
2021/03/11 12:18:19;;;;;;;27.00;22.33;;;436.10;537.60;;;;;;4896776;29;20179;-70